Flight Track Log - Related Links

Times and Time Zones

All times are in EDT time to prevent confusion due to time zone crossing. See the DAL268 flight status page for this flight to view local times or setup timezone preferences in your user account.

Time Position Orientation Groundspeed Altitude Reporting Facility
EDT Latitude Longitude Course Direction KTS MPH feet Rate Location/Type
Wed 08:56:20 PM 33.6333 -84.3833 64° Northeast 177 204 2,600  Level Atlanta TRACON
Wed 08:57:26 PM 33.6333 -84.3000 90° East 252 290 4,500 2,300 Climbing Atlanta TRACON
Wed 08:58:20 PM 33.6333 -84.2167 90° East 273 314 7,200 2,492 Climbing Atlanta TRACON
Wed 08:59:36 PM 33.6356 -84.1061 89° East 329 379 9,900 1,985 Climbing Atlanta Center
Wed 09:00:00 PM 33.6606 -83.6966 101° East  Level FlightAware Approximate
Wed 09:00:36 PM 33.6378 -84.0014 89° East 324 373 11,700  Level Atlanta Center
Wed 09:01:00 PM 33.6806 -83.5585 64° Northeast  Level FlightAware Approximate
Wed 09:01:36 PM 33.6439 -83.8792 87° East 339 390 13,300  Level Atlanta Center
Wed 09:02:36 PM 33.6500 -83.7494 87° East 370 426 14,900 1,650 Climbing Atlanta Center
Wed 09:03:36 PM 33.6661 -83.6194 81° East 393 452 16,600 1,450 Climbing Atlanta Center
Wed 09:04:36 PM 33.7178 -83.4944 64° Northeast 393 452 17,800 1,250 Climbing Atlanta Center
Wed 09:05:36 PM 33.7736 -83.3567 64° Northeast 417 480 19,100 1,650 Climbing Atlanta Center
Wed 09:06:36 PM 33.8292 -83.2161 65° Northeast 457 526 21,100 1,900 Climbing Atlanta Center
Wed 09:07:36 PM 33.8864 -83.0728 64° Northeast 468 539 22,900 1,500 Climbing Atlanta Center
Wed 09:08:36 PM 33.9397 -82.9419 64° Northeast 473 544 24,100 1,350 Climbing Atlanta Center
Wed 09:09:36 PM 33.9989 -82.7961 64° Northeast 473 544 25,600 1,200 Climbing Atlanta Center
Wed 09:10:36 PM 34.0597 -82.6472 64° Northeast 485 558 26,500 1,150 Climbing Atlanta Center
Wed 09:11:36 PM 34.1267 -82.4781 64° Northeast 496 571 27,900 1,750 Climbing Atlanta Center
Wed 09:12:36 PM 34.1769 -82.3464 65° Northeast 491 565 30,000 1,700 Climbing Atlanta Center
Wed 09:13:36 PM 34.2333 -82.1994 65° Northeast 486 559 31,300 1,000 Climbing Atlanta Center
Wed 09:14:36 PM 34.3000 -82.0572 60° Northeast 481 554 32,000 750 Climbing Atlanta Center
Wed 09:15:36 PM 34.3686 -81.9172 59° Northeast 481 554 32,800 500 Climbing Atlanta Center
Wed 09:16:36 PM 34.4392 -81.7794 58° Northeast 481 554 33,000 100 Climbing Atlanta Center
Wed 09:17:36 PM 34.5075 -81.6392 59° Northeast 481 554 33,000  Level Atlanta Center
Wed 09:18:36 PM 34.5797 -81.4983 58° Northeast 476 548 33,000  Level Atlanta Center
Wed 09:19:36 PM 34.6539 -81.3519 58° Northeast 476 548 33,000  Level Atlanta Center
Wed 09:20:36 PM 34.7136 -81.2239 60° Northeast 469 540 33,000  Level Atlanta Center
Wed 09:21:36 PM 34.7814 -81.0850 59° Northeast 476 548 33,000  Level Atlanta Center
Wed 09:22:36 PM 34.8450 -80.9561 59° Northeast 465 535 33,000  Level Atlanta Center
Wed 09:24:13 PM 34.9614 -80.7114 60° Northeast 475 547 33,000  Level Washington Center
Wed 09:25:14 PM 35.0300 -80.5711 59° Northeast 475 547 33,000  Level Washington Center
Wed 09:26:14 PM 35.0983 -80.4281 60° Northeast 475 547 33,000  Level Washington Center
Wed 09:27:14 PM 35.1644 -80.2872 60° Northeast 469 540 33,000  Level Washington Center
Wed 09:28:13 PM 35.2306 -80.1461 60° Northeast 474 545 33,000  Level Washington Center
Wed 09:29:15 PM 35.2842 -79.9989 66° East 469 540 33,000  Level Washington Center
Wed 09:30:15 PM 35.3314 -79.8439 69° East 469 540 33,000  Level Washington Center
Wed 09:31:13 PM 35.3786 -79.6908 69° East 474 545 33,000  Level Washington Center
Wed 09:32:14 PM 35.4275 -79.5353 69° East 479 551 33,000  Level Washington Center
Wed 09:33:15 PM 35.4825 -79.3850 66° East 479 551 33,000  Level Washington Center
Wed 09:34:13 PM 35.5428 -79.2603 59° Northeast 479 551 33,000  Level Washington Center
Wed 09:35:13 PM 35.6142 -79.1075 60° Northeast 472 543 33,000  Level Washington Center
Wed 09:36:14 PM 35.6808 -78.9647 60° Northeast 472 543 33,000  Level Washington Center
Wed 09:37:15 PM 35.7475 -78.8219 60° Northeast 472 543 33,000  Level Washington Center
Wed 09:38:13 PM 35.8158 -78.6761 60° Northeast 472 543 33,000  Level Washington Center
Wed 09:39:14 PM 35.8778 -78.5350 62° Northeast 472 543 33,000  Level Washington Center
Wed 09:40:15 PM 35.9419 -78.3911 61° Northeast 472 543 33,000  Level Washington Center
Wed 09:41:13 PM 36.0078 -78.2469 61° Northeast 472 543 33,000  Level Washington Center
Wed 09:42:14 PM 36.0714 -78.1028 61° Northeast 472 543 33,000  Level Washington Center
Wed 09:43:14 PM 36.1347 -77.9556 62° Northeast 472 543 33,000  Level Washington Center
Wed 09:44:13 PM 36.2003 -77.8108 61° Northeast 472 543 33,000  Level Washington Center
Wed 09:45:13 PM 36.2653 -77.6683 60° Northeast 472 543 33,000  Level Washington Center
Wed 09:46:14 PM 36.3283 -77.5178 62° Northeast 472 543 33,000  Level Washington Center
Wed 09:47:15 PM 36.3825 -77.3875 63° Northeast 472 543 33,000  Level Washington Center
Wed 09:48:13 PM 36.4472 -77.2394 61° Northeast 472 543 33,000  Level Washington Center
Wed 09:49:14 PM 36.5203 -77.0781 61° Northeast 472 543 33,000  Level Washington Center
Wed 09:50:14 PM 36.5931 -76.9347 58° Northeast 478 550 33,000  Level Washington Center
Wed 09:51:15 PM 36.6922 -76.8222 42° Northeast 473 544 33,000  Level Washington Center
Wed 09:52:13 PM 36.7975 -76.7228 37° Northeast 468 539 33,000  Level Washington Center
Wed 09:53:14 PM 36.9006 -76.6178 39° Northeast 468 539 33,000  Level Washington Center
Wed 09:54:15 PM 37.0036 -76.5153 38° Northeast 468 539 33,000  Level Washington Center
Wed 09:55:13 PM 37.1086 -76.4122 38° Northeast 468 539 33,000  Level Washington Center
Wed 09:56:14 PM 37.2094 -76.3117 38° Northeast 468 539 33,000  Level Washington Center
Wed 09:57:14 PM 37.3122 -76.2108 38° Northeast 468 539 33,000  Level Washington Center
Wed 09:58:15 PM 37.4108 -76.1200 36° Northeast 468 539 33,000  Level Washington Center
Wed 09:59:13 PM 37.5114 -76.0186 39° Northeast 468 539 33,000  Level Washington Center
Wed 10:00:13 PM 37.6139 -75.9169 38° Northeast 468 539 33,000 -50 Level Washington Center
Wed 10:01:13 PM 37.7142 -75.8150 39° Northeast 468 539 32,900  Descending Washington Center
Wed 10:02:14 PM 37.8144 -75.7128 39° Northeast 468 539 33,000 49 Climbing Washington Center
Wed 10:03:15 PM 37.9125 -75.6128 39° Northeast 468 539 33,000  Level Washington Center
Wed 10:04:15 PM 38.0125 -75.5128 38° Northeast 462 532 33,000  Level Washington Center
Wed 10:05:15 PM 38.1167 -75.4256 33° Northeast 462 532 33,000  Level Washington Center
Wed 10:06:13 PM 38.2292 -75.3592 25° Northeast 450 518 33,000 -353 Level Washington Center
Wed 10:07:14 PM 38.3519 -75.2792 27° Northeast 437 503 32,300 -1,339 Descending Washington Center
Wed 10:08:14 PM 38.4664 -75.2019 28° Northeast 443 510 30,300 -1,983 Descending Washington Center
Wed 10:09:15 PM 38.5831 -75.1350 24° Northeast 448 516 28,300 -1,636 Descending Washington Center
Wed 10:10:15 PM 38.7036 -75.0517 28° Northeast 469 540 27,000 -661 Descending Washington Center
Wed 10:11:13 PM 38.8242 -74.9761 26° Northeast 474 545 27,000 -50 Level Washington Center
Wed 10:12:14 PM 38.9467 -74.8950 27° Northeast 479 551 26,900  Descending Washington Center
Wed 10:13:15 PM 39.0692 -74.8164 26° Northeast 479 551 27,000 -397 Climbing Washington Center
Wed 10:14:15 PM 39.1767 -74.7133 37° Northeast 484 557 26,100 -1,050 Descending Washington Center
Wed 10:15:15 PM 39.2822 -74.5969 40° Northeast 484 557 24,900 -1,740 Descending Washington Center
Wed 10:17:04 PM 39.4594 -74.4036 40° Northeast 464 534 21,200 -2,130 Descending New York Center
Wed 10:18:04 PM 39.5544 -74.2981 41° Northeast 458 527 18,900 -2,200 Descending New York Center
Wed 10:19:04 PM 39.6536 -74.1869 41° Northeast 439 505 16,800 -1,900 Descending New York Center
Wed 10:20:04 PM 39.7439 -74.0889 40° Northeast 426 490 15,100 -1,525 Descending New York Center
Wed 10:21:06 PM 39.8233 -74.0033 40° Northeast 417 480 13,700 -1,300 Descending New York Center
Wed 10:22:04 PM 39.9108 -73.9317 32° Northeast 388 447 12,500 -1,311 Descending New York Center
Wed 10:23:05 PM 40.0042 -73.8683 27° Northeast 350 403 11,100 -793 Descending New York Center
Wed 10:24:05 PM 40.0764 -73.8172 28° Northeast 320 368 10,900 -939 Descending New York Center
Wed 10:25:00 PM 40.1500 -73.7833 19° North 298 343 9,300 -1,670 Descending New York TRACON
Wed 10:26:00 PM 40.2167 -73.8333 330° Northwest 286 329 7,700 -1,619 Descending New York TRACON
Wed 10:27:06 PM 40.3000 -73.9000 329° Northwest 281 323 5,900 -1,450 Descending New York TRACON
Wed 10:28:00 PM 40.3500 -73.9333 333° Northwest 268 308 4,800 -1,424 Descending New York TRACON
Wed 10:29:04 PM 40.4200 -73.9878 329° Northwest 266 306 3,100 -871 Descending New York Center
Wed 10:30:04 PM 40.4767 -73.9742 10° North 221 254 3,000 -52 Descending New York Center
Wed 10:31:00 PM 40.5333 -73.9667 North 186 214 3,000 -517 Level New York TRACON
Wed 10:32:00 PM 40.5667 -73.9167 49° Northeast 185 213 2,000 -1,000 Descending New York TRACON

Login

Don't have an account? Register now (free) for customized features, flight alerts, and more!